Аэропорт: Основа. Харьков

ICAO: UKHH

METAR:
2018/07/16 19:30
UKHH 161930Z 00000MPS CAVOK 20/18 Q1002 R07/0///72 NOSIG
METAR:
2017/01/09 00:27
TAF 
      AMD TAF 
      AMD UKHH 090020Z 0900/0919 36003MPS 1200 BR OVC003 
      TEMPO 0900/0909 0400 FZFG BKN002 PROB40 
      TEMPO 0900/0909 -FZDZ